Bankston, AL (35542)

11:39 PM CDT on July 25, 2016 (GMT -0500)
Bevill State | | Change Station

Elev 423 ft 33.73 °N, 87.82 °W | Updated 9 minutes ago

Mostly Cloudy
Mostly Cloudy
81.8 °F
Feels Like 88 °F
N
0.0
Wind Variable Wind from ESE
Gusts 0.0 mph

Today
High -- | Low -- °F
--% Chance of Precip.
Yesterday
High -- | Low -- °F
Precip. -- in
Pressure 30.01 in
Visibility 10.0 miles
Clouds Mostly Cloudy 6000 ft
Mostly Cloudy 9500 ft
Mostly Cloudy 11000 ft
Heat Index 88 °F
Dew Point 75 °F
Humidity 79%
Rainfall 0.00 in
Snow Depth Not available.
5:58 AM 7:55 PM
Waning Gibbous, 59% visible
METAR KTCL 260353Z AUTO 19007KT 10SM BKN060 BKN095 BKN110 27/23 A3002 RMK AO2 SLP163 T02720233
Pressure 30.01 in
Visibility 10.0 miles
Clouds Mostly Cloudy 6000 ft
Mostly Cloudy 9500 ft
Mostly Cloudy 11000 ft
Heat Index 88 °F
Dew Point 75 °F
Humidity 79%
Rainfall 0.00 in
Snow Depth Not available.
5:58 AM 7:55 PM
Waning Gibbous, 59% visible
METAR KTCL 260353Z AUTO 19007KT 10SM BKN060 BKN095 BKN110 27/23 A3002 RMK AO2 SLP163 T02720233

10-Day Weather Forecast

Almanac

Astronomy

Jul. 25, 2016 Rise Set
Actual Time
Civil Twilight
Nautical Twilight
Astronomical Twilight
Moon
Length of Visible Light
Length of Day
Tomorrow will be .
, % of the Moon is Illuminated

Today's Extremes

State Highs State Lows

Community

WunderPhotos

Upload Photos

1,927,534 photos uploaded!

WunderBlog® & News

Nearby

Air Quality

  Air Quality AQ Index Pollutant
Not available.

Snow Depth

Station Depth Elevation

Earthquake Activity

City Distance Mag. Time & Date
Minimum magnitude displayed is 2.5.

Coastal Water Temperatures

Place Temperature

Stations

Nearby Weather Stations

Station Location Temp. Windchill Dew Point Humidity Wind Precip. Elev Updated Type
                   

Watches & Warnings

There are currently no watches in effect.